Portada
METAR-TAF:

METAR-TAF

Aeropuertos :

Aeródromo Henderson

Midway, Estados Unidos

latitud: 28-13N, longitud: 177-22W, altitud: 4 m

Observación

El informe se hizo hace 30 minutos, a las 17:56 UTC
Viento 7 kt del este-sureste
Temperatura 25°C
Humedad 89%
Presión 1017 hPa
Visibilidad: 11.3 km
Cielo despejado

METAR: PMDY 061756Z AUTO 11007KT 7SM CLR 25/23 A3002 RMK AO2 SLP166 60001 T02500233 10256 20250 53007

Hora: 08:26 (18:26 UTC)

Pronóstico

El informe se hizo hace 58 minutos, a las 17:28 UTC
Pronóstico válido del 06 a las 18 UTC al 07 a las 18 UTC
Viento 7 kt del este
Visibilidad: 10 km
Escasas nubes a una altura de 1500 ft
Nubes dispersas a una altura de 7000 ft
Cielo nuboso a una altura de 25000 ft

TAF: PMDY 061728Z 0618/0718 10007KT P6SM FEW015 SCT070 BKN250

Observaciones y pronósticos meteorológicos de más de 4000 aeropuertos (mensajes METAR y TAF).

Los puntos amarillos y rojos representan las estaciones disponibles.

Ponga el ratón en el punto deseado para ver el nombre de la estación.

Haga clic para ver las observaciones y los pronósticos meteorológicos.

Para cambiar el mapa : haga clic en los botones verdes con una cruz de color negro para hacer un zoom, en el botón verde con un guión para alejar o en las flechas verdes para mapas adyacentes.


METAR-TAF: